sensor_id;sensor_type;location;lat;lon;timestamp;P1;durP1;ratioP1;P2;durP2;ratioP2
20928;SDS011;21895;47.072;15.132;2022-12-11T00:00:23;8.70;;;3.90;;
20928;SDS011;21895;47.072;15.132;2022-12-11T00:02:50;11.03;;;4.57;;
20928;SDS011;21895;47.072;15.132;2022-12-11T00:05:18;7.23;;;3.47;;
20928;SDS011;21895;47.072;15.132;2022-12-11T00:07:44;4.83;;;2.83;;
20928;SDS011;21895;47.072;15.132;2022-12-11T00:10:11;6.93;;;3.10;;
20928;SDS011;21895;47.072;15.132;2022-12-11T00:12:37;13.73;;;5.00;;
20928;SDS011;21895;47.072;15.132;2022-12-11T00:15:04;6.70;;;3.70;;
20928;SDS011;21895;47.072;15.132;2022-12-11T00:17:31;5.97;;;3.10;;
20928;SDS011;21895;47.072;15.132;2022-12-11T00:19:58;3.90;;;2.60;;
20928;SDS011;21895;47.072;15.132;2022-12-11T00:22:24;5.90;;;1.80;;
20928;SDS011;21895;47.072;15.132;2022-12-11T00:24:51;5.40;;;2.10;;
20928;SDS011;21895;47.072;15.132;2022-12-11T00:27:17;4.73;;;2.40;;
20928;SDS011;21895;47.072;15.132;2022-12-11T00:29:47;4.87;;;2.30;;
20928;SDS011;21895;47.072;15.132;2022-12-11T00:32:13;2.37;;;1.77;;
20928;SDS011;21895;47.072;15.132;2022-12-11T00:34:41;3.23;;;1.90;;
20928;SDS011;21895;47.072;15.132;2022-12-11T00:37:08;4.43;;;1.63;;
20928;SDS011;21895;47.072;15.132;2022-12-11T00:39:35;3.57;;;1.90;;
20928;SDS011;21895;47.072;15.132;2022-12-11T00:42:04;4.57;;;2.43;;
20928;SDS011;21895;47.072;15.132;2022-12-11T00:44:32;3.37;;;1.93;;
20928;SDS011;21895;47.072;15.132;2022-12-11T00:46:59;3.07;;;1.97;;
20928;SDS011;21895;47.072;15.132;2022-12-11T00:49:26;3.93;;;1.67;;
20928;SDS011;21895;47.072;15.132;2022-12-11T00:51:52;3.60;;;1.87;;
20928;SDS011;21895;47.072;15.132;2022-12-11T00:54:19;2.77;;;1.90;;
20928;SDS011;21895;47.072;15.132;2022-12-11T00:56:45;2.73;;;1.87;;
20928;SDS011;21895;47.072;15.132;2022-12-11T00:59:12;2.33;;;1.53;;
20928;SDS011;21895;47.072;15.132;2022-12-11T01:01:38;6.37;;;1.50;;
20928;SDS011;21895;47.072;15.132;2022-12-11T01:04:05;2.73;;;1.40;;
20928;SDS011;21895;47.072;15.132;2022-12-11T01:06:31;2.00;;;1.50;;
20928;SDS011;21895;47.072;15.132;2022-12-11T01:08:57;3.83;;;1.60;;
20928;SDS011;21895;47.072;15.132;2022-12-11T01:11:42;4.77;;;1.33;;
20928;SDS011;21895;47.072;15.132;2022-12-11T01:14:10;2.27;;;1.17;;
20928;SDS011;21895;47.072;15.132;2022-12-11T01:16:36;1.73;;;1.03;;
20928;SDS011;21895;47.072;15.132;2022-12-11T01:19:03;1.40;;;1.17;;
20928;SDS011;21895;47.072;15.132;2022-12-11T01:21:30;1.73;;;1.00;;
20928;SDS011;21895;47.072;15.132;2022-12-11T01:23:56;0.77;;;0.77;;
20928;SDS011;21895;47.072;15.132;2022-12-11T01:26:23;1.03;;;0.90;;
20928;SDS011;21895;47.072;15.132;2022-12-11T01:28:50;1.03;;;0.83;;
20928;SDS011;21895;47.072;15.132;2022-12-11T01:31:17;1.87;;;1.10;;
20928;SDS011;21895;47.072;15.132;2022-12-11T01:33:45;1.40;;;1.00;;
20928;SDS011;21895;47.072;15.132;2022-12-11T01:36:13;2.00;;;1.00;;
20928;SDS011;21895;47.072;15.132;2022-12-11T01:38:44;0.93;;;0.83;;
20928;SDS011;21895;47.072;15.132;2022-12-11T01:41:13;1.30;;;1.10;;
20928;SDS011;21895;47.072;15.132;2022-12-11T01:48:13;1.10;;;0.90;;
20928;SDS011;21895;47.072;15.132;2022-12-11T01:50:55;1.37;;;0.87;;
20928;SDS011;21895;47.072;15.132;2022-12-11T01:53:32;1.97;;;1.10;;
20928;SDS011;21895;47.072;15.132;2022-12-11T01:56:04;1.47;;;0.90;;
20928;SDS011;21895;47.072;15.132;2022-12-11T01:58:33;1.30;;;0.80;;
20928;SDS011;21895;47.072;15.132;2022-12-11T02:01:23;1.83;;;0.60;;
20928;SDS011;21895;47.072;15.132;2022-12-11T02:04:11;1.40;;;0.77;;
20928;SDS011;21895;47.072;15.132;2022-12-11T02:06:44;3.93;;;0.70;;
20928;SDS011;21895;47.072;15.132;2022-12-11T02:09:15;0.83;;;0.70;;
20928;SDS011;21895;47.072;15.132;2022-12-11T02:20:22;1.03;;;0.80;;
20928;SDS011;21895;47.072;15.132;2022-12-11T02:24:40;2.20;;;0.67;;
20928;SDS011;21895;47.072;15.132;2022-12-11T02:27:45;0.97;;;0.77;;
20928;SDS011;21895;47.072;15.132;2022-12-11T02:30:21;1.00;;;0.70;;
20928;SDS011;21895;47.072;15.132;2022-12-11T02:32:55;1.00;;;0.80;;
20928;SDS011;21895;47.072;15.132;2022-12-11T02:35:25;1.17;;;0.80;;
20928;SDS011;21895;47.072;15.132;2022-12-11T02:38:01;1.10;;;0.70;;
20928;SDS011;21895;47.072;15.132;2022-12-11T02:40:38;0.60;;;0.60;;
20928;SDS011;21895;47.072;15.132;2022-12-11T02:43:08;0.63;;;0.60;;
20928;SDS011;21895;47.072;15.132;2022-12-11T02:45:39;0.93;;;0.70;;
20928;SDS011;21895;47.072;15.132;2022-12-11T02:48:09;0.70;;;0.70;;
20928;SDS011;21895;47.072;15.132;2022-12-11T02:50:40;0.70;;;0.70;;
20928;SDS011;21895;47.072;15.132;2022-12-11T02:53:12;1.63;;;0.93;;
20928;SDS011;21895;47.072;15.132;2022-12-11T02:55:44;1.07;;;0.70;;
20928;SDS011;21895;47.072;15.132;2022-12-11T02:58:17;0.60;;;0.60;;
20928;SDS011;21895;47.072;15.132;2022-12-11T03:00:50;0.97;;;0.73;;
20928;SDS011;21895;47.072;15.132;2022-12-11T03:03:17;0.77;;;0.67;;
20928;SDS011;21895;47.072;15.132;2022-12-11T03:05:44;1.03;;;0.70;;
20928;SDS011;21895;47.072;15.132;2022-12-11T03:08:11;1.13;;;0.80;;
20928;SDS011;21895;47.072;15.132;2022-12-11T03:10:44;2.50;;;0.80;;
20928;SDS011;21895;47.072;15.132;2022-12-11T03:13:11;1.10;;;1.00;;
20928;SDS011;21895;47.072;15.132;2022-12-11T03:22:18;1.60;;;0.60;;
20928;SDS011;21895;47.072;15.132;2022-12-11T03:25:29;1.90;;;0.80;;
20928;SDS011;21895;47.072;15.132;2022-12-11T03:28:47;1.10;;;0.80;;
20928;SDS011;21895;47.072;15.132;2022-12-11T03:31:32;0.87;;;0.80;;
20928;SDS011;21895;47.072;15.132;2022-12-11T03:34:28;1.47;;;1.00;;
20928;SDS011;21895;47.072;15.132;2022-12-11T03:37:05;1.40;;;0.90;;
20928;SDS011;21895;47.072;15.132;2022-12-11T03:39:36;0.83;;;0.83;;
20928;SDS011;21895;47.072;15.132;2022-12-11T03:42:14;1.40;;;0.90;;
20928;SDS011;21895;47.072;15.132;2022-12-11T03:44:45;3.07;;;1.03;;
20928;SDS011;21895;47.072;15.132;2022-12-11T03:47:17;1.27;;;0.87;;
20928;SDS011;21895;47.072;15.132;2022-12-11T03:49:49;2.07;;;1.00;;
20928;SDS011;21895;47.072;15.132;2022-12-11T03:52:20;1.50;;;0.97;;
20928;SDS011;21895;47.072;15.132;2022-12-11T03:54:56;1.37;;;1.00;;
20928;SDS011;21895;47.072;15.132;2022-12-11T03:57:28;1.57;;;0.90;;
20928;SDS011;21895;47.072;15.132;2022-12-11T04:00:01;1.00;;;0.90;;
20928;SDS011;21895;47.072;15.132;2022-12-11T04:02:33;1.93;;;1.40;;
20928;SDS011;21895;47.072;15.132;2022-12-11T04:05:00;1.50;;;1.30;;
20928;SDS011;21895;47.072;15.132;2022-12-11T04:07:26;2.27;;;1.40;;
20928;SDS011;21895;47.072;15.132;2022-12-11T04:09:53;2.13;;;1.20;;
20928;SDS011;21895;47.072;15.132;2022-12-11T04:12:22;3.20;;;1.40;;
20928;SDS011;21895;47.072;15.132;2022-12-11T04:14:51;2.20;;;1.50;;
20928;SDS011;21895;47.072;15.132;2022-12-11T04:17:26;1.73;;;1.27;;
20928;SDS011;21895;47.072;15.132;2022-12-11T04:20:13;3.67;;;1.70;;
20928;SDS011;21895;47.072;15.132;2022-12-11T04:22:58;2.60;;;1.60;;
20928;SDS011;21895;47.072;15.132;2022-12-11T04:25:43;2.03;;;1.23;;
20928;SDS011;21895;47.072;15.132;2022-12-11T04:28:09;2.23;;;1.33;;
20928;SDS011;21895;47.072;15.132;2022-12-11T04:30:36;1.37;;;1.10;;
20928;SDS011;21895;47.072;15.132;2022-12-11T04:33:02;2.23;;;1.40;;
20928;SDS011;21895;47.072;15.132;2022-12-11T04:35:29;4.13;;;1.63;;
20928;SDS011;21895;47.072;15.132;2022-12-11T04:38:00;2.13;;;1.47;;
20928;SDS011;21895;47.072;15.132;2022-12-11T04:40:26;3.27;;;1.70;;
20928;SDS011;21895;47.072;15.132;2022-12-11T04:42:53;2.20;;;1.17;;
20928;SDS011;21895;47.072;15.132;2022-12-11T04:45:19;2.10;;;0.93;;
20928;SDS011;21895;47.072;15.132;2022-12-11T04:47:46;2.17;;;1.17;;
20928;SDS011;21895;47.072;15.132;2022-12-11T04:50:13;1.50;;;1.23;;
20928;SDS011;21895;47.072;15.132;2022-12-11T04:52:41;2.93;;;1.40;;
20928;SDS011;21895;47.072;15.132;2022-12-11T04:55:08;2.33;;;1.00;;
20928;SDS011;21895;47.072;15.132;2022-12-11T04:57:36;1.33;;;1.13;;
20928;SDS011;21895;47.072;15.132;2022-12-11T05:00:04;2.47;;;1.30;;
20928;SDS011;21895;47.072;15.132;2022-12-11T05:02:35;1.53;;;1.20;;
20928;SDS011;21895;47.072;15.132;2022-12-11T05:05:04;2.43;;;1.30;;
20928;SDS011;21895;47.072;15.132;2022-12-11T05:07:34;2.20;;;1.40;;
20928;SDS011;21895;47.072;15.132;2022-12-11T05:10:02;2.83;;;1.47;;
20928;SDS011;21895;47.072;15.132;2022-12-11T05:12:30;1.87;;;1.30;;
20928;SDS011;21895;47.072;15.132;2022-12-11T05:14:57;1.77;;;1.10;;
20928;SDS011;21895;47.072;15.132;2022-12-11T05:17:24;1.67;;;1.13;;
20928;SDS011;21895;47.072;15.132;2022-12-11T05:19:50;1.10;;;0.90;;
20928;SDS011;21895;47.072;15.132;2022-12-11T05:22:20;4.37;;;1.20;;
20928;SDS011;21895;47.072;15.132;2022-12-11T05:24:46;1.80;;;1.17;;
20928;SDS011;21895;47.072;15.132;2022-12-11T05:27:13;2.43;;;1.20;;
20928;SDS011;21895;47.072;15.132;2022-12-11T05:29:39;2.00;;;1.27;;
20928;SDS011;21895;47.072;15.132;2022-12-11T05:32:06;3.73;;;1.47;;
20928;SDS011;21895;47.072;15.132;2022-12-11T05:34:35;1.03;;;0.93;;
20928;SDS011;21895;47.072;15.132;2022-12-11T05:37:02;1.97;;;1.27;;
20928;SDS011;21895;47.072;15.132;2022-12-11T05:39:28;2.33;;;1.20;;
20928;SDS011;21895;47.072;15.132;2022-12-11T05:41:57;1.83;;;1.30;;
20928;SDS011;21895;47.072;15.132;2022-12-11T05:44:24;2.77;;;1.40;;
20928;SDS011;21895;47.072;15.132;2022-12-11T05:46:51;1.50;;;1.30;;
20928;SDS011;21895;47.072;15.132;2022-12-11T05:49:18;2.20;;;1.20;;
20928;SDS011;21895;47.072;15.132;2022-12-11T05:51:45;3.33;;;1.70;;
20928;SDS011;21895;47.072;15.132;2022-12-11T05:54:12;2.90;;;1.63;;
20928;SDS011;21895;47.072;15.132;2022-12-11T05:56:39;3.00;;;1.50;;
20928;SDS011;21895;47.072;15.132;2022-12-11T05:59:05;3.87;;;1.70;;
20928;SDS011;21895;47.072;15.132;2022-12-11T06:01:36;2.37;;;1.30;;
20928;SDS011;21895;47.072;15.132;2022-12-11T06:04:07;2.90;;;1.80;;
20928;SDS011;21895;47.072;15.132;2022-12-11T06:06:38;2.33;;;1.23;;
20928;SDS011;21895;47.072;15.132;2022-12-11T06:09:05;4.17;;;1.80;;
20928;SDS011;21895;47.072;15.132;2022-12-11T06:11:32;4.17;;;1.93;;
20928;SDS011;21895;47.072;15.132;2022-12-11T06:14:00;5.40;;;2.40;;
20928;SDS011;21895;47.072;15.132;2022-12-11T06:16:28;2.77;;;1.73;;
20928;SDS011;21895;47.072;15.132;2022-12-11T06:18:55;4.93;;;2.07;;
20928;SDS011;21895;47.072;15.132;2022-12-11T06:21:27;4.33;;;1.93;;
20928;SDS011;21895;47.072;15.132;2022-12-11T06:23:58;5.83;;;2.57;;
20928;SDS011;21895;47.072;15.132;2022-12-11T06:26:27;6.37;;;2.90;;
20928;SDS011;21895;47.072;15.132;2022-12-11T06:28:54;8.07;;;2.77;;
20928;SDS011;21895;47.072;15.132;2022-12-11T06:31:20;6.27;;;2.60;;
20928;SDS011;21895;47.072;15.132;2022-12-11T06:33:47;6.63;;;2.90;;
20928;SDS011;21895;47.072;15.132;2022-12-11T06:36:15;4.13;;;2.27;;
20928;SDS011;21895;47.072;15.132;2022-12-11T06:38:44;4.17;;;2.10;;
20928;SDS011;21895;47.072;15.132;2022-12-11T06:41:12;7.07;;;2.00;;
20928;SDS011;21895;47.072;15.132;2022-12-11T06:43:39;5.07;;;1.93;;
20928;SDS011;21895;47.072;15.132;2022-12-11T06:46:11;3.53;;;1.87;;
20928;SDS011;21895;47.072;15.132;2022-12-11T06:48:42;8.10;;;3.33;;
20928;SDS011;21895;47.072;15.132;2022-12-11T06:51:11;8.50;;;3.20;;
20928;SDS011;21895;47.072;15.132;2022-12-11T06:53:42;7.97;;;3.20;;
20928;SDS011;21895;47.072;15.132;2022-12-11T06:56:11;5.30;;;2.80;;
20928;SDS011;21895;47.072;15.132;2022-12-11T06:58:40;4.40;;;2.27;;
20928;SDS011;21895;47.072;15.132;2022-12-11T07:01:32;4.33;;;2.13;;
20928;SDS011;21895;47.072;15.132;2022-12-11T07:03:59;4.13;;;2.00;;
20928;SDS011;21895;47.072;15.132;2022-12-11T07:06:26;4.00;;;2.23;;
20928;SDS011;21895;47.072;15.132;2022-12-11T07:08:53;5.40;;;2.37;;
20928;SDS011;21895;47.072;15.132;2022-12-11T07:11:21;4.93;;;2.50;;
20928;SDS011;21895;47.072;15.132;2022-12-11T07:13:47;3.37;;;2.17;;
20928;SDS011;21895;47.072;15.132;2022-12-11T07:16:15;5.90;;;2.67;;
20928;SDS011;21895;47.072;15.132;2022-12-11T07:18:45;5.87;;;2.00;;
20928;SDS011;21895;47.072;15.132;2022-12-11T07:21:15;2.93;;;1.83;;
20928;SDS011;21895;47.072;15.132;2022-12-11T07:23:42;4.27;;;2.43;;
20928;SDS011;21895;47.072;15.132;2022-12-11T07:26:10;3.53;;;2.00;;
20928;SDS011;21895;47.072;15.132;2022-12-11T07:28:40;5.53;;;2.60;;
20928;SDS011;21895;47.072;15.132;2022-12-11T07:31:08;5.80;;;3.07;;
20928;SDS011;21895;47.072;15.132;2022-12-11T07:33:37;5.70;;;2.73;;
20928;SDS011;21895;47.072;15.132;2022-12-11T07:36:05;5.23;;;2.77;;
20928;SDS011;21895;47.072;15.132;2022-12-11T07:38:34;8.47;;;2.70;;
20928;SDS011;21895;47.072;15.132;2022-12-11T07:41:01;6.00;;;3.30;;
20928;SDS011;21895;47.072;15.132;2022-12-11T07:43:30;5.63;;;2.80;;
20928;SDS011;21895;47.072;15.132;2022-12-11T07:46:01;9.30;;;2.80;;
20928;SDS011;21895;47.072;15.132;2022-12-11T07:48:49;8.50;;;3.73;;
20928;SDS011;21895;47.072;15.132;2022-12-11T07:51:22;5.97;;;3.03;;
20928;SDS011;21895;47.072;15.132;2022-12-11T07:53:53;8.87;;;3.57;;
20928;SDS011;21895;47.072;15.132;2022-12-11T07:56:23;8.53;;;3.63;;
20928;SDS011;21895;47.072;15.132;2022-12-11T07:58:50;7.57;;;3.70;;
20928;SDS011;21895;47.072;15.132;2022-12-11T08:01:18;5.77;;;3.37;;
20928;SDS011;21895;47.072;15.132;2022-12-11T08:03:53;10.13;;;3.60;;
20928;SDS011;21895;47.072;15.132;2022-12-11T08:06:23;6.37;;;3.53;;
20928;SDS011;21895;47.072;15.132;2022-12-11T08:08:54;6.43;;;3.37;;
20928;SDS011;21895;47.072;15.132;2022-12-11T08:11:23;11.23;;;4.47;;
20928;SDS011;21895;47.072;15.132;2022-12-11T08:13:50;10.40;;;4.73;;
20928;SDS011;21895;47.072;15.132;2022-12-11T08:16:17;9.77;;;4.40;;
20928;SDS011;21895;47.072;15.132;2022-12-11T08:18:45;15.77;;;6.70;;
20928;SDS011;21895;47.072;15.132;2022-12-11T08:21:19;19.43;;;7.17;;
20928;SDS011;21895;47.072;15.132;2022-12-11T08:23:49;7.30;;;3.80;;
20928;SDS011;21895;47.072;15.132;2022-12-11T08:26:18;7.20;;;3.20;;
20928;SDS011;21895;47.072;15.132;2022-12-11T08:28:59;8.23;;;3.83;;
20928;SDS011;21895;47.072;15.132;2022-12-11T08:31:27;10.63;;;5.07;;
20928;SDS011;21895;47.072;15.132;2022-12-11T08:33:54;10.13;;;4.63;;
20928;SDS011;21895;47.072;15.132;2022-12-11T08:36:22;7.60;;;3.50;;
20928;SDS011;21895;47.072;15.132;2022-12-11T08:38:49;8.37;;;4.37;;
20928;SDS011;21895;47.072;15.132;2022-12-11T08:41:25;22.10;;;8.87;;
20928;SDS011;21895;47.072;15.132;2022-12-11T08:43:55;19.80;;;8.27;;
20928;SDS011;21895;47.072;15.132;2022-12-11T08:46:24;16.10;;;6.80;;
20928;SDS011;21895;47.072;15.132;2022-12-11T08:48:53;17.60;;;6.93;;
20928;SDS011;21895;47.072;15.132;2022-12-11T08:51:22;16.87;;;6.80;;
20928;SDS011;21895;47.072;15.132;2022-12-11T08:53:53;16.47;;;7.30;;
20928;SDS011;21895;47.072;15.132;2022-12-11T08:56:21;18.83;;;8.07;;
20928;SDS011;21895;47.072;15.132;2022-12-11T08:58:49;20.07;;;9.33;;
20928;SDS011;21895;47.072;15.132;2022-12-11T09:01:21;19.63;;;9.27;;
20928;SDS011;21895;47.072;15.132;2022-12-11T09:03:50;17.37;;;7.40;;
20928;SDS011;21895;47.072;15.132;2022-12-11T09:06:20;14.67;;;7.17;;
20928;SDS011;21895;47.072;15.132;2022-12-11T09:08:51;13.77;;;7.03;;
20928;SDS011;21895;47.072;15.132;2022-12-11T09:11:23;17.57;;;7.10;;
20928;SDS011;21895;47.072;15.132;2022-12-11T09:13:56;16.40;;;6.90;;
20928;SDS011;21895;47.072;15.132;2022-12-11T09:16:32;6.30;;;2.93;;
20928;SDS011;21895;47.072;15.132;2022-12-11T09:19:02;6.37;;;3.50;;
20928;SDS011;21895;47.072;15.132;2022-12-11T09:21:30;5.50;;;3.10;;
20928;SDS011;21895;47.072;15.132;2022-12-11T09:23:58;8.43;;;3.40;;
20928;SDS011;21895;47.072;15.132;2022-12-11T09:26:26;7.00;;;4.00;;
20928;SDS011;21895;47.072;15.132;2022-12-11T09:28:54;7.83;;;3.93;;
20928;SDS011;21895;47.072;15.132;2022-12-11T09:31:22;7.83;;;3.53;;
20928;SDS011;21895;47.072;15.132;2022-12-11T09:33:56;8.03;;;4.10;;
20928;SDS011;21895;47.072;15.132;2022-12-11T09:36:29;6.20;;;3.27;;
20928;SDS011;21895;47.072;15.132;2022-12-11T09:39:00;6.13;;;2.97;;
20928;SDS011;21895;47.072;15.132;2022-12-11T09:42:04;7.10;;;2.77;;
20928;SDS011;21895;47.072;15.132;2022-12-11T09:44:56;3.60;;;1.73;;
20928;SDS011;21895;47.072;15.132;2022-12-11T09:47:37;4.93;;;2.10;;
20928;SDS011;21895;47.072;15.132;2022-12-11T09:50:16;3.83;;;1.93;;
20928;SDS011;21895;47.072;15.132;2022-12-11T09:53:09;3.83;;;2.00;;
20928;SDS011;21895;47.072;15.132;2022-12-11T09:55:50;6.17;;;2.10;;
20928;SDS011;21895;47.072;15.132;2022-12-11T09:59:17;6.70;;;2.70;;
20928;SDS011;21895;47.072;15.132;2022-12-11T10:02:42;5.70;;;2.80;;
20928;SDS011;21895;47.072;15.132;2022-12-11T10:17:26;5.40;;;2.20;;
20928;SDS011;21895;47.072;15.132;2022-12-11T10:19:57;4.27;;;2.20;;
20928;SDS011;21895;47.072;15.132;2022-12-11T10:23:07;6.07;;;2.60;;
20928;SDS011;21895;47.072;15.132;2022-12-11T10:25:46;5.03;;;2.73;;
20928;SDS011;21895;47.072;15.132;2022-12-11T10:28:28;2.73;;;1.80;;
20928;SDS011;21895;47.072;15.132;2022-12-11T10:31:10;3.73;;;2.00;;
20928;SDS011;21895;47.072;15.132;2022-12-11T10:34:02;3.03;;;2.07;;
20928;SDS011;21895;47.072;15.132;2022-12-11T10:36:40;4.67;;;2.47;;
20928;SDS011;21895;47.072;15.132;2022-12-11T10:39:11;3.73;;;2.23;;
20928;SDS011;21895;47.072;15.132;2022-12-11T10:41:45;4.37;;;2.20;;
20928;SDS011;21895;47.072;15.132;2022-12-11T10:47:12;5.17;;;2.40;;
20928;SDS011;21895;47.072;15.132;2022-12-11T10:49:58;4.87;;;2.37;;
20928;SDS011;21895;47.072;15.132;2022-12-11T10:52:31;3.23;;;2.00;;
20928;SDS011;21895;47.072;15.132;2022-12-11T10:55:23;3.73;;;2.10;;
20928;SDS011;21895;47.072;15.132;2022-12-11T10:57:58;3.70;;;2.10;;
20928;SDS011;21895;47.072;15.132;2022-12-11T11:00:35;3.43;;;1.83;;
20928;SDS011;21895;47.072;15.132;2022-12-11T11:03:05;6.60;;;2.20;;
20928;SDS011;21895;47.072;15.132;2022-12-11T11:05:47;5.20;;;2.10;;
20928;SDS011;21895;47.072;15.132;2022-12-11T11:08:20;2.80;;;1.80;;
20928;SDS011;21895;47.072;15.132;2022-12-11T11:10:49;3.67;;;1.93;;
20928;SDS011;21895;47.072;15.132;2022-12-11T11:13:26;5.10;;;2.37;;
20928;SDS011;21895;47.072;15.132;2022-12-11T11:15:59;7.37;;;3.27;;
20928;SDS011;21895;47.072;15.132;2022-12-11T11:18:36;4.50;;;2.30;;
20928;SDS011;21895;47.072;15.132;2022-12-11T11:21:06;6.10;;;3.33;;
20928;SDS011;21895;47.072;15.132;2022-12-11T11:23:43;4.83;;;2.40;;
20928;SDS011;21895;47.072;15.132;2022-12-11T11:26:17;7.13;;;3.07;;
20928;SDS011;21895;47.072;15.132;2022-12-11T11:28:48;6.60;;;2.90;;
20928;SDS011;21895;47.072;15.132;2022-12-11T11:31:30;4.53;;;2.60;;
20928;SDS011;21895;47.072;15.132;2022-12-11T11:34:00;6.80;;;3.07;;
20928;SDS011;21895;47.072;15.132;2022-12-11T11:36:33;4.63;;;2.67;;
20928;SDS011;21895;47.072;15.132;2022-12-11T11:42:18;5.20;;;2.10;;
20928;SDS011;21895;47.072;15.132;2022-12-11T11:45:04;4.40;;;2.40;;
20928;SDS011;21895;47.072;15.132;2022-12-11T11:47:51;4.27;;;2.30;;
20928;SDS011;21895;47.072;15.132;2022-12-11T11:50:39;4.17;;;1.90;;
20928;SDS011;21895;47.072;15.132;2022-12-11T11:53:11;3.50;;;1.77;;
20928;SDS011;21895;47.072;15.132;2022-12-11T11:56:15;4.00;;;1.83;;
20928;SDS011;21895;47.072;15.132;2022-12-11T12:02:12;5.73;;;2.00;;
20928;SDS011;21895;47.072;15.132;2022-12-11T12:04:44;4.83;;;2.30;;
20928;SDS011;21895;47.072;15.132;2022-12-11T12:07:29;5.30;;;2.83;;
20928;SDS011;21895;47.072;15.132;2022-12-11T12:10:47;3.37;;;2.00;;
20928;SDS011;21895;47.072;15.132;2022-12-11T12:28:30;5.90;;;2.67;;
20928;SDS011;21895;47.072;15.132;2022-12-11T12:33:49;20.03;;;3.70;;
20928;SDS011;21895;47.072;15.132;2022-12-11T12:38:58;5.20;;;2.20;;
20928;SDS011;21895;47.072;15.132;2022-12-11T12:47:12;8.40;;;3.37;;
20928;SDS011;21895;47.072;15.132;2022-12-11T12:49:48;4.50;;;2.13;;
20928;SDS011;21895;47.072;15.132;2022-12-11T12:52:17;5.00;;;2.50;;
20928;SDS011;21895;47.072;15.132;2022-12-11T12:55:15;5.70;;;2.37;;
20928;SDS011;21895;47.072;15.132;2022-12-11T12:57:59;5.87;;;2.73;;
20928;SDS011;21895;47.072;15.132;2022-12-11T13:00:36;3.70;;;2.03;;
20928;SDS011;21895;47.072;15.132;2022-12-11T13:06:08;4.07;;;1.80;;
20928;SDS011;21895;47.072;15.132;2022-12-11T13:08:37;6.43;;;2.93;;
20928;SDS011;21895;47.072;15.132;2022-12-11T13:11:16;2.87;;;1.70;;
20928;SDS011;21895;47.072;15.132;2022-12-11T13:14:00;3.17;;;1.80;;
20928;SDS011;21895;47.072;15.132;2022-12-11T13:16:40;3.37;;;1.80;;
20928;SDS011;21895;47.072;15.132;2022-12-11T13:19:27;4.30;;;2.03;;
20928;SDS011;21895;47.072;15.132;2022-12-11T13:27:24;5.03;;;2.03;;
20928;SDS011;21895;47.072;15.132;2022-12-11T13:30:21;3.10;;;1.90;;
20928;SDS011;21895;47.072;15.132;2022-12-11T13:39:45;5.63;;;2.40;;
20928;SDS011;21895;47.072;15.132;2022-12-11T13:42:22;4.17;;;2.33;;
20928;SDS011;21895;47.072;15.132;2022-12-11T13:44:56;6.20;;;2.73;;
20928;SDS011;21895;47.072;15.132;2022-12-11T13:47:25;9.40;;;3.50;;
20928;SDS011;21895;47.072;15.132;2022-12-11T13:49:59;8.27;;;3.23;;
20928;SDS011;21895;47.072;15.132;2022-12-11T13:53:16;4.27;;;2.63;;
20928;SDS011;21895;47.072;15.132;2022-12-11T13:55:45;4.67;;;1.97;;
20928;SDS011;21895;47.072;15.132;2022-12-11T13:58:24;8.57;;;3.20;;
20928;SDS011;21895;47.072;15.132;2022-12-11T14:01:06;5.83;;;2.67;;
20928;SDS011;21895;47.072;15.132;2022-12-11T14:04:06;5.90;;;2.20;;
20928;SDS011;21895;47.072;15.132;2022-12-11T14:06:40;5.13;;;2.07;;
20928;SDS011;21895;47.072;15.132;2022-12-11T14:09:07;5.47;;;2.87;;
20928;SDS011;21895;47.072;15.132;2022-12-11T14:11:37;3.40;;;1.80;;
20928;SDS011;21895;47.072;15.132;2022-12-11T14:14:07;3.33;;;1.70;;
20928;SDS011;21895;47.072;15.132;2022-12-11T14:16:46;4.67;;;2.60;;
20928;SDS011;21895;47.072;15.132;2022-12-11T14:19:17;4.20;;;2.00;;
20928;SDS011;21895;47.072;15.132;2022-12-11T14:21:56;8.20;;;2.73;;
20928;SDS011;21895;47.072;15.132;2022-12-11T14:24:29;4.17;;;2.40;;
20928;SDS011;21895;47.072;15.132;2022-12-11T14:26:57;3.97;;;2.07;;
20928;SDS011;21895;47.072;15.132;2022-12-11T14:29:25;5.23;;;2.07;;
20928;SDS011;21895;47.072;15.132;2022-12-11T14:32:00;4.83;;;1.90;;
20928;SDS011;21895;47.072;15.132;2022-12-11T14:34:32;4.27;;;2.23;;
20928;SDS011;21895;47.072;15.132;2022-12-11T14:37:07;2.17;;;1.30;;
20928;SDS011;21895;47.072;15.132;2022-12-11T14:39:55;4.70;;;1.57;;
20928;SDS011;21895;47.072;15.132;2022-12-11T14:42:31;6.07;;;2.10;;
20928;SDS011;21895;47.072;15.132;2022-12-11T14:45:37;3.80;;;1.40;;
20928;SDS011;21895;47.072;15.132;2022-12-11T14:48:14;5.63;;;1.90;;
20928;SDS011;21895;47.072;15.132;2022-12-11T14:50:48;6.87;;;2.20;;
20928;SDS011;21895;47.072;15.132;2022-12-11T14:53:20;4.67;;;1.93;;
20928;SDS011;21895;47.072;15.132;2022-12-11T14:55:56;4.73;;;2.27;;
20928;SDS011;21895;47.072;15.132;2022-12-11T14:58:27;4.33;;;1.70;;
20928;SDS011;21895;47.072;15.132;2022-12-11T15:01:00;6.07;;;1.90;;
20928;SDS011;21895;47.072;15.132;2022-12-11T15:03:40;2.20;;;1.13;;
20928;SDS011;21895;47.072;15.132;2022-12-11T15:06:23;3.67;;;1.73;;
20928;SDS011;21895;47.072;15.132;2022-12-11T15:08:56;4.60;;;2.00;;
20928;SDS011;21895;47.072;15.132;2022-12-11T15:11:33;6.00;;;2.13;;
20928;SDS011;21895;47.072;15.132;2022-12-11T15:14:01;5.60;;;2.47;;
20928;SDS011;21895;47.072;15.132;2022-12-11T15:16:32;6.87;;;3.03;;
20928;SDS011;21895;47.072;15.132;2022-12-11T15:19:06;10.30;;;3.17;;
20928;SDS011;21895;47.072;15.132;2022-12-11T15:21:45;9.40;;;3.50;;
20928;SDS011;21895;47.072;15.132;2022-12-11T15:24:26;3.30;;;1.87;;
20928;SDS011;21895;47.072;15.132;2022-12-11T15:27:03;4.93;;;2.27;;
20928;SDS011;21895;47.072;15.132;2022-12-11T15:29:37;4.50;;;2.40;;
20928;SDS011;21895;47.072;15.132;2022-12-11T15:34:53;5.93;;;2.63;;
20928;SDS011;21895;47.072;15.132;2022-12-11T15:37:30;11.40;;;3.30;;
20928;SDS011;21895;47.072;15.132;2022-12-11T15:40:03;4.53;;;1.90;;
20928;SDS011;21895;47.072;15.132;2022-12-11T15:42:34;4.57;;;2.07;;
20928;SDS011;21895;47.072;15.132;2022-12-11T15:45:07;4.30;;;1.73;;
20928;SDS011;21895;47.072;15.132;2022-12-11T15:47:43;3.40;;;1.90;;
20928;SDS011;21895;47.072;15.132;2022-12-11T15:50:13;2.80;;;1.70;;
20928;SDS011;21895;47.072;15.132;2022-12-11T15:52:43;3.00;;;1.73;;
20928;SDS011;21895;47.072;15.132;2022-12-11T15:55:11;3.53;;;1.80;;
20928;SDS011;21895;47.072;15.132;2022-12-11T15:57:39;3.73;;;1.60;;
20928;SDS011;21895;47.072;15.132;2022-12-11T16:00:22;7.67;;;2.53;;
20928;SDS011;21895;47.072;15.132;2022-12-11T16:02:51;11.23;;;3.30;;
20928;SDS011;21895;47.072;15.132;2022-12-11T16:05:18;4.27;;;1.63;;
20928;SDS011;21895;47.072;15.132;2022-12-11T16:07:44;5.47;;;1.70;;
20928;SDS011;21895;47.072;15.132;2022-12-11T16:10:13;3.30;;;1.60;;
20928;SDS011;21895;47.072;15.132;2022-12-11T16:12:42;2.53;;;1.50;;
20928;SDS011;21895;47.072;15.132;2022-12-11T16:15:12;6.40;;;1.97;;
20928;SDS011;21895;47.072;15.132;2022-12-11T16:17:48;3.30;;;1.77;;
20928;SDS011;21895;47.072;15.132;2022-12-11T16:20:14;3.77;;;1.67;;
20928;SDS011;21895;47.072;15.132;2022-12-11T16:22:41;5.13;;;1.80;;
20928;SDS011;21895;47.072;15.132;2022-12-11T16:25:07;4.23;;;2.07;;
20928;SDS011;21895;47.072;15.132;2022-12-11T16:27:37;4.10;;;1.90;;
20928;SDS011;21895;47.072;15.132;2022-12-11T16:30:03;3.67;;;1.93;;
20928;SDS011;21895;47.072;15.132;2022-12-11T16:32:31;4.27;;;2.20;;
20928;SDS011;21895;47.072;15.132;2022-12-11T16:34:58;3.33;;;1.80;;